sensor_id;sensor_type;location;lat;lon;timestamp;temperature;humidity
6740;DHT22;3407;49.882;10.920;2024-03-29T00:00:43;5.60;1.00
6740;DHT22;3407;49.882;10.920;2024-03-29T00:05:39;5.70;1.00
6740;DHT22;3407;49.882;10.920;2024-03-29T00:10:35;5.70;99.90
6740;DHT22;3407;49.882;10.920;2024-03-29T00:15:33;5.60;99.90
6740;DHT22;3407;49.882;10.920;2024-03-29T00:20:29;5.60;99.90
6740;DHT22;3407;49.882;10.920;2024-03-29T00:25:25;5.60;99.90
6740;DHT22;3407;49.882;10.920;2024-03-29T00:30:20;5.60;99.90
6740;DHT22;3407;49.882;10.920;2024-03-29T00:35:16;5.70;99.90
6740;DHT22;3407;49.882;10.920;2024-03-29T00:40:12;5.70;99.90
6740;DHT22;3407;49.882;10.920;2024-03-29T00:45:08;5.70;99.90
6740;DHT22;3407;49.882;10.920;2024-03-29T00:50:03;5.80;99.90
6740;DHT22;3407;49.882;10.920;2024-03-29T00:54:59;5.80;99.90
6740;DHT22;3407;49.882;10.920;2024-03-29T00:59:54;5.70;99.90
6740;DHT22;3407;49.882;10.920;2024-03-29T01:04:52;5.70;99.90
6740;DHT22;3407;49.882;10.920;2024-03-29T01:09:47;5.70;99.90
6740;DHT22;3407;49.882;10.920;2024-03-29T01:14:43;5.80;99.90
6740;DHT22;3407;49.882;10.920;2024-03-29T01:19:38;5.80;99.90
6740;DHT22;3407;49.882;10.920;2024-03-29T01:24:34;5.90;99.90
6740;DHT22;3407;49.882;10.920;2024-03-29T01:29:29;6.00;99.90
6740;DHT22;3407;49.882;10.920;2024-03-29T01:34:25;6.00;99.90
6740;DHT22;3407;49.882;10.920;2024-03-29T01:39:20;6.20;99.90
6740;DHT22;3407;49.882;10.920;2024-03-29T01:44:21;6.40;99.90
6740;DHT22;3407;49.882;10.920;2024-03-29T01:49:17;6.50;99.90
6740;DHT22;3407;49.882;10.920;2024-03-29T01:54:13;6.50;99.90
6740;DHT22;3407;49.882;10.920;2024-03-29T01:59:13;6.50;99.90
6740;DHT22;3407;49.882;10.920;2024-03-29T02:04:10;6.50;99.90
6740;DHT22;3407;49.882;10.920;2024-03-29T02:09:05;6.50;99.90
6740;DHT22;3407;49.882;10.920;2024-03-29T02:14:01;6.60;99.90
6740;DHT22;3407;49.882;10.920;2024-03-29T02:18:57;6.70;5.30
6740;DHT22;3407;49.882;10.920;2024-03-29T02:24:06;6.80;1.00
6740;DHT22;3407;49.882;10.920;2024-03-29T02:29:04;6.80;1.00
6740;DHT22;3407;49.882;10.920;2024-03-29T02:34:00;6.90;1.00
6740;DHT22;3407;49.882;10.920;2024-03-29T02:38:55;6.90;1.00
6740;DHT22;3407;49.882;10.920;2024-03-29T02:43:51;6.90;1.00
6740;DHT22;3407;49.882;10.920;2024-03-29T02:48:46;7.00;1.00
6740;DHT22;3407;49.882;10.920;2024-03-29T02:53:42;7.00;1.00
6740;DHT22;3407;49.882;10.920;2024-03-29T02:58:37;7.10;1.00
6740;DHT22;3407;49.882;10.920;2024-03-29T03:03:33;7.10;1.00
6740;DHT22;3407;49.882;10.920;2024-03-29T03:08:31;7.20;1.00
6740;DHT22;3407;49.882;10.920;2024-03-29T03:13:46;7.20;1.00
6740;DHT22;3407;49.882;10.920;2024-03-29T03:18:41;7.20;1.00
6740;DHT22;3407;49.882;10.920;2024-03-29T03:23:36;7.30;1.00
6740;DHT22;3407;49.882;10.920;2024-03-29T03:28:32;7.30;1.00
6740;DHT22;3407;49.882;10.920;2024-03-29T03:33:28;7.30;1.00
6740;DHT22;3407;49.882;10.920;2024-03-29T03:38:23;7.30;1.00
6740;DHT22;3407;49.882;10.920;2024-03-29T03:43:19;7.30;1.00
6740;DHT22;3407;49.882;10.920;2024-03-29T03:48:14;7.40;1.00
6740;DHT22;3407;49.882;10.920;2024-03-29T03:53:10;7.50;1.00
6740;DHT22;3407;49.882;10.920;2024-03-29T03:58:05;7.40;1.00
6740;DHT22;3407;49.882;10.920;2024-03-29T04:03:01;7.30;1.00
6740;DHT22;3407;49.882;10.920;2024-03-29T04:07:59;7.30;1.00
6740;DHT22;3407;49.882;10.920;2024-03-29T04:12:55;7.30;1.00
6740;DHT22;3407;49.882;10.920;2024-03-29T04:17:50;7.40;1.00
6740;DHT22;3407;49.882;10.920;2024-03-29T04:22:46;7.50;1.00
6740;DHT22;3407;49.882;10.920;2024-03-29T04:27:41;7.50;1.00
6740;DHT22;3407;49.882;10.920;2024-03-29T04:32:37;7.50;1.00
6740;DHT22;3407;49.882;10.920;2024-03-29T04:37:33;7.60;1.00
6740;DHT22;3407;49.882;10.920;2024-03-29T04:42:28;7.80;1.00
6740;DHT22;3407;49.882;10.920;2024-03-29T04:47:24;7.90;99.90
6740;DHT22;3407;49.882;10.920;2024-03-29T04:52:19;7.90;99.90
6740;DHT22;3407;49.882;10.920;2024-03-29T04:57:15;8.10;99.90
6740;DHT22;3407;49.882;10.920;2024-03-29T05:02:11;8.20;99.90
6740;DHT22;3407;49.882;10.920;2024-03-29T05:07:06;8.30;99.90
6740;DHT22;3407;49.882;10.920;2024-03-29T05:12:02;8.40;99.90
6740;DHT22;3407;49.882;10.920;2024-03-29T05:16:57;8.40;99.90
6740;DHT22;3407;49.882;10.920;2024-03-29T05:21:53;8.40;99.90
6740;DHT22;3407;49.882;10.920;2024-03-29T05:26:48;8.50;99.90
6740;DHT22;3407;49.882;10.920;2024-03-29T05:31:44;8.50;99.90
6740;DHT22;3407;49.882;10.920;2024-03-29T05:36:39;8.60;99.90
6740;DHT22;3407;49.882;10.920;2024-03-29T05:41:35;8.70;99.90
6740;DHT22;3407;49.882;10.920;2024-03-29T05:46:30;8.60;99.90
6740;DHT22;3407;49.882;10.920;2024-03-29T05:51:26;8.50;99.90
6740;DHT22;3407;49.882;10.920;2024-03-29T05:56:21;8.40;99.90
6740;DHT22;3407;49.882;10.920;2024-03-29T06:01:17;8.40;99.90
6740;DHT22;3407;49.882;10.920;2024-03-29T06:06:13;8.40;99.90
6740;DHT22;3407;49.882;10.920;2024-03-29T06:11:12;8.10;99.90
6740;DHT22;3407;49.882;10.920;2024-03-29T06:16:08;7.80;99.90
6740;DHT22;3407;49.882;10.920;2024-03-29T06:21:22;7.70;1.00
6740;DHT22;3407;49.882;10.920;2024-03-29T06:26:18;7.50;1.00
6740;DHT22;3407;49.882;10.920;2024-03-29T06:31:13;7.30;1.00
6740;DHT22;3407;49.882;10.920;2024-03-29T06:36:09;7.30;99.90
6740;DHT22;3407;49.882;10.920;2024-03-29T06:41:04;7.30;99.90
6740;DHT22;3407;49.882;10.920;2024-03-29T06:46:00;7.40;99.90
6740;DHT22;3407;49.882;10.920;2024-03-29T06:50:58;7.40;99.90
6740;DHT22;3407;49.882;10.920;2024-03-29T06:55:55;7.50;99.90
6740;DHT22;3407;49.882;10.920;2024-03-29T07:00:51;7.70;99.90
6740;DHT22;3407;49.882;10.920;2024-03-29T07:05:47;7.90;1.00
6740;DHT22;3407;49.882;10.920;2024-03-29T07:10:43;8.00;1.00
6740;DHT22;3407;49.882;10.920;2024-03-29T07:15:38;8.20;1.00
6740;DHT22;3407;49.882;10.920;2024-03-29T07:20:34;8.40;1.00
6740;DHT22;3407;49.882;10.920;2024-03-29T07:25:29;8.70;99.90
6740;DHT22;3407;49.882;10.920;2024-03-29T07:30:25;8.90;99.90
6740;DHT22;3407;49.882;10.920;2024-03-29T07:35:20;9.00;99.90
6740;DHT22;3407;49.882;10.920;2024-03-29T07:40:16;9.20;99.90
6740;DHT22;3407;49.882;10.920;2024-03-29T07:45:12;9.50;99.90
6740;DHT22;3407;49.882;10.920;2024-03-29T07:50:09;9.90;99.90
6740;DHT22;3407;49.882;10.920;2024-03-29T07:55:05;10.40;99.90
6740;DHT22;3407;49.882;10.920;2024-03-29T08:00:01;10.90;99.90
6740;DHT22;3407;49.882;10.920;2024-03-29T08:04:56;11.10;99.90
6740;DHT22;3407;49.882;10.920;2024-03-29T08:09:53;10.90;99.90
6740;DHT22;3407;49.882;10.920;2024-03-29T08:14:49;11.00;99.90
6740;DHT22;3407;49.882;10.920;2024-03-29T08:19:44;11.10;99.90
6740;DHT22;3407;49.882;10.920;2024-03-29T08:24:40;11.20;99.90
6740;DHT22;3407;49.882;10.920;2024-03-29T08:29:36;11.60;99.90
6740;DHT22;3407;49.882;10.920;2024-03-29T08:34:31;12.20;99.90
6740;DHT22;3407;49.882;10.920;2024-03-29T08:39:31;12.00;99.90
6740;DHT22;3407;49.882;10.920;2024-03-29T08:44:27;11.80;99.90
6740;DHT22;3407;49.882;10.920;2024-03-29T08:49:22;11.80;99.90
6740;DHT22;3407;49.882;10.920;2024-03-29T08:54:18;11.90;99.90
6740;DHT22;3407;49.882;10.920;2024-03-29T08:59:14;11.80;99.90
6740;DHT22;3407;49.882;10.920;2024-03-29T09:04:10;11.80;99.90
6740;DHT22;3407;49.882;10.920;2024-03-29T09:09:06;11.80;99.90
6740;DHT22;3407;49.882;10.920;2024-03-29T09:14:02;11.80;99.90
6740;DHT22;3407;49.882;10.920;2024-03-29T09:18:59;11.90;99.90
6740;DHT22;3407;49.882;10.920;2024-03-29T09:23:55;11.70;99.90
6740;DHT22;3407;49.882;10.920;2024-03-29T09:28:51;11.50;99.90
6740;DHT22;3407;49.882;10.920;2024-03-29T09:33:47;11.50;99.90
6740;DHT22;3407;49.882;10.920;2024-03-29T09:38:47;11.00;99.90
6740;DHT22;3407;49.882;10.920;2024-03-29T09:43:44;10.30;99.90
6740;DHT22;3407;49.882;10.920;2024-03-29T09:48:44;9.70;99.90
6740;DHT22;3407;49.882;10.920;2024-03-29T09:53:43;9.30;1.00
6740;DHT22;3407;49.882;10.920;2024-03-29T09:58:38;9.10;99.90
6740;DHT22;3407;49.882;10.920;2024-03-29T10:03:42;8.80;1.00
6740;DHT22;3407;49.882;10.920;2024-03-29T10:08:38;8.70;99.90
6740;DHT22;3407;49.882;10.920;2024-03-29T10:13:34;8.60;99.90
6740;DHT22;3407;49.882;10.920;2024-03-29T10:18:30;8.60;99.90
6740;DHT22;3407;49.882;10.920;2024-03-29T10:23:26;8.60;1.00
6740;DHT22;3407;49.882;10.920;2024-03-29T10:28:22;8.60;1.00
6740;DHT22;3407;49.882;10.920;2024-03-29T10:33:18;8.70;1.00
6740;DHT22;3407;49.882;10.920;2024-03-29T10:38:13;8.80;1.00
6740;DHT22;3407;49.882;10.920;2024-03-29T10:43:10;9.10;1.00
6740;DHT22;3407;49.882;10.920;2024-03-29T10:48:10;9.40;1.00
6740;DHT22;3407;49.882;10.920;2024-03-29T10:53:05;9.60;1.00
6740;DHT22;3407;49.882;10.920;2024-03-29T10:58:01;9.70;1.00
6740;DHT22;3407;49.882;10.920;2024-03-29T11:03:16;10.00;1.00
6740;DHT22;3407;49.882;10.920;2024-03-29T11:08:19;10.20;99.90
6740;DHT22;3407;49.882;10.920;2024-03-29T11:18:43;10.10;99.90
6740;DHT22;3407;49.882;10.920;2024-03-29T11:23:39;9.90;99.90
6740;DHT22;3407;49.882;10.920;2024-03-29T11:28:35;10.00;1.00
6740;DHT22;3407;49.882;10.920;2024-03-29T11:33:32;10.40;1.00
6740;DHT22;3407;49.882;10.920;2024-03-29T11:38:34;10.50;85.20
6740;DHT22;3407;49.882;10.920;2024-03-29T11:43:33;10.50;1.00
6740;DHT22;3407;49.882;10.920;2024-03-29T11:48:30;10.50;99.90
6740;DHT22;3407;49.882;10.920;2024-03-29T11:53:29;10.50;99.90
6740;DHT22;3407;49.882;10.920;2024-03-29T11:58:27;10.60;99.90
6740;DHT22;3407;49.882;10.920;2024-03-29T12:03:25;10.70;99.90
6740;DHT22;3407;49.882;10.920;2024-03-29T12:08:21;11.10;99.90
6740;DHT22;3407;49.882;10.920;2024-03-29T12:13:17;11.10;1.00
6740;DHT22;3407;49.882;10.920;2024-03-29T12:18:13;11.20;1.00
6740;DHT22;3407;49.882;10.920;2024-03-29T12:23:11;11.30;99.90
6740;DHT22;3407;49.882;10.920;2024-03-29T12:28:10;11.30;1.00
6740;DHT22;3407;49.882;10.920;2024-03-29T12:33:17;11.40;99.90
6740;DHT22;3407;49.882;10.920;2024-03-29T12:38:17;11.60;99.90
6740;DHT22;3407;49.882;10.920;2024-03-29T12:43:12;12.00;99.90
6740;DHT22;3407;49.882;10.920;2024-03-29T12:48:13;12.40;1.00
6740;DHT22;3407;49.882;10.920;2024-03-29T12:53:11;12.80;1.00
6740;DHT22;3407;49.882;10.920;2024-03-29T12:58:07;13.10;1.00
6740;DHT22;3407;49.882;10.920;2024-03-29T13:03:05;13.10;1.00
6740;DHT22;3407;49.882;10.920;2024-03-29T13:08:04;13.00;99.90
6740;DHT22;3407;49.882;10.920;2024-03-29T13:13:00;12.90;1.00
6740;DHT22;3407;49.882;10.920;2024-03-29T13:17:56;13.10;99.90
6740;DHT22;3407;49.882;10.920;2024-03-29T13:22:52;13.30;78.30
6740;DHT22;3407;49.882;10.920;2024-03-29T13:27:52;13.50;1.00
6740;DHT22;3407;49.882;10.920;2024-03-29T13:32:49;13.50;1.00
6740;DHT22;3407;49.882;10.920;2024-03-29T13:37:45;13.50;1.00
6740;DHT22;3407;49.882;10.920;2024-03-29T13:42:44;13.50;1.00
6740;DHT22;3407;49.882;10.920;2024-03-29T13:47:41;13.70;1.00
6740;DHT22;3407;49.882;10.920;2024-03-29T13:52:37;13.80;1.00
6740;DHT22;3407;49.882;10.920;2024-03-29T13:57:33;14.50;1.00
6740;DHT22;3407;49.882;10.920;2024-03-29T14:02:28;15.50;1.00
6740;DHT22;3407;49.882;10.920;2024-03-29T14:07:24;16.40;99.90
6740;DHT22;3407;49.882;10.920;2024-03-29T14:12:23;16.90;99.90
6740;DHT22;3407;49.882;10.920;2024-03-29T14:17:19;16.70;99.90
6740;DHT22;3407;49.882;10.920;2024-03-29T14:22:15;16.50;99.90
6740;DHT22;3407;49.882;10.920;2024-03-29T14:27:12;16.80;99.90
6740;DHT22;3407;49.882;10.920;2024-03-29T14:32:10;16.90;99.90
6740;DHT22;3407;49.882;10.920;2024-03-29T14:37:06;17.10;99.90
6740;DHT22;3407;49.882;10.920;2024-03-29T14:42:02;17.30;99.90
6740;DHT22;3407;49.882;10.920;2024-03-29T14:47:00;17.00;99.90
6740;DHT22;3407;49.882;10.920;2024-03-29T14:51:56;16.80;99.90
6740;DHT22;3407;49.882;10.920;2024-03-29T14:56:51;16.70;99.90
6740;DHT22;3407;49.882;10.920;2024-03-29T15:01:47;16.60;99.90
6740;DHT22;3407;49.882;10.920;2024-03-29T15:06:43;16.20;99.90
6740;DHT22;3407;49.882;10.920;2024-03-29T15:11:39;16.10;99.90
6740;DHT22;3407;49.882;10.920;2024-03-29T15:16:34;16.10;99.90
6740;DHT22;3407;49.882;10.920;2024-03-29T15:21:30;16.00;99.90
6740;DHT22;3407;49.882;10.920;2024-03-29T15:26:26;15.70;99.90
6740;DHT22;3407;49.882;10.920;2024-03-29T15:31:22;15.50;99.90
6740;DHT22;3407;49.882;10.920;2024-03-29T15:36:18;15.40;99.90
6740;DHT22;3407;49.882;10.920;2024-03-29T15:41:14;15.20;99.90
6740;DHT22;3407;49.882;10.920;2024-03-29T15:46:09;15.10;99.90
6740;DHT22;3407;49.882;10.920;2024-03-29T15:51:07;15.10;99.90
6740;DHT22;3407;49.882;10.920;2024-03-29T15:56:06;15.00;99.90
6740;DHT22;3407;49.882;10.920;2024-03-29T16:01:08;14.90;99.90
6740;DHT22;3407;49.882;10.920;2024-03-29T16:06:04;14.90;99.90
6740;DHT22;3407;49.882;10.920;2024-03-29T16:11:05;14.70;99.90
6740;DHT22;3407;49.882;10.920;2024-03-29T16:16:04;14.60;99.90
6740;DHT22;3407;49.882;10.920;2024-03-29T16:21:00;14.50;99.90
6740;DHT22;3407;49.882;10.920;2024-03-29T16:25:56;14.50;99.90
6740;DHT22;3407;49.882;10.920;2024-03-29T16:30:53;14.50;99.90
6740;DHT22;3407;49.882;10.920;2024-03-29T16:35:49;14.50;99.90
6740;DHT22;3407;49.882;10.920;2024-03-29T16:40:44;14.50;99.90
6740;DHT22;3407;49.882;10.920;2024-03-29T16:45:41;14.40;99.90
6740;DHT22;3407;49.882;10.920;2024-03-29T16:50:37;14.30;99.90
6740;DHT22;3407;49.882;10.920;2024-03-29T16:55:33;14.20;99.90
6740;DHT22;3407;49.882;10.920;2024-03-29T17:00:31;14.00;99.90
6740;DHT22;3407;49.882;10.920;2024-03-29T17:05:27;13.80;1.00
6740;DHT22;3407;49.882;10.920;2024-03-29T17:10:23;13.60;1.00
6740;DHT22;3407;49.882;10.920;2024-03-29T17:15:19;13.30;99.90
6740;DHT22;3407;49.882;10.920;2024-03-29T17:20:15;13.10;1.00
6740;DHT22;3407;49.882;10.920;2024-03-29T17:25:10;12.90;1.00
6740;DHT22;3407;49.882;10.920;2024-03-29T17:30:06;12.70;1.00
6740;DHT22;3407;49.882;10.920;2024-03-29T17:35:03;12.50;1.00
6740;DHT22;3407;49.882;10.920;2024-03-29T17:39:59;12.30;1.00
6740;DHT22;3407;49.882;10.920;2024-03-29T17:44:55;12.10;1.00
6740;DHT22;3407;49.882;10.920;2024-03-29T17:49:50;11.90;1.00
6740;DHT22;3407;49.882;10.920;2024-03-29T17:54:46;11.70;99.90
6740;DHT22;3407;49.882;10.920;2024-03-29T17:59:42;11.50;1.00
6740;DHT22;3407;49.882;10.920;2024-03-29T18:04:38;11.40;99.90
6740;DHT22;3407;49.882;10.920;2024-03-29T18:09:33;11.30;1.00
6740;DHT22;3407;49.882;10.920;2024-03-29T18:14:29;11.20;99.90
6740;DHT22;3407;49.882;10.920;2024-03-29T18:19:24;11.10;99.90
6740;DHT22;3407;49.882;10.920;2024-03-29T18:24:20;11.00;99.90
6740;DHT22;3407;49.882;10.920;2024-03-29T18:29:15;10.90;99.90
6740;DHT22;3407;49.882;10.920;2024-03-29T18:34:11;10.80;1.00
6740;DHT22;3407;49.882;10.920;2024-03-29T18:39:07;10.70;1.00
6740;DHT22;3407;49.882;10.920;2024-03-29T18:44:03;10.70;1.00
6740;DHT22;3407;49.882;10.920;2024-03-29T18:48:58;10.60;1.00
6740;DHT22;3407;49.882;10.920;2024-03-29T18:53:54;10.40;1.00
6740;DHT22;3407;49.882;10.920;2024-03-29T18:58:49;10.30;1.00
6740;DHT22;3407;49.882;10.920;2024-03-29T19:03:45;10.20;1.00
6740;DHT22;3407;49.882;10.920;2024-03-29T19:08:42;10.10;1.00
6740;DHT22;3407;49.882;10.920;2024-03-29T19:13:37;10.00;1.00
6740;DHT22;3407;49.882;10.920;2024-03-29T19:18:33;10.00;1.00
6740;DHT22;3407;49.882;10.920;2024-03-29T19:23:28;9.90;1.00
6740;DHT22;3407;49.882;10.920;2024-03-29T19:28:26;10.00;1.00
6740;DHT22;3407;49.882;10.920;2024-03-29T19:33:22;10.00;1.00
6740;DHT22;3407;49.882;10.920;2024-03-29T19:38:18;10.00;1.00
6740;DHT22;3407;49.882;10.920;2024-03-29T19:43:15;10.00;1.00
6740;DHT22;3407;49.882;10.920;2024-03-29T19:48:10;9.90;1.00
6740;DHT22;3407;49.882;10.920;2024-03-29T19:53:06;9.90;1.00
6740;DHT22;3407;49.882;10.920;2024-03-29T19:58:01;9.80;1.00
6740;DHT22;3407;49.882;10.920;2024-03-29T20:02:58;9.80;1.00
6740;DHT22;3407;49.882;10.920;2024-03-29T20:07:53;9.70;1.00
6740;DHT22;3407;49.882;10.920;2024-03-29T20:12:49;9.70;1.00
6740;DHT22;3407;49.882;10.920;2024-03-29T20:17:44;9.60;1.00
6740;DHT22;3407;49.882;10.920;2024-03-29T20:22:39;9.60;1.00
6740;DHT22;3407;49.882;10.920;2024-03-29T20:27:35;9.50;1.00
6740;DHT22;3407;49.882;10.920;2024-03-29T20:32:30;9.40;1.00
6740;DHT22;3407;49.882;10.920;2024-03-29T20:37:26;9.30;1.00
6740;DHT22;3407;49.882;10.920;2024-03-29T20:42:22;9.20;1.00
6740;DHT22;3407;49.882;10.920;2024-03-29T20:47:17;9.10;1.00
6740;DHT22;3407;49.882;10.920;2024-03-29T20:52:13;8.80;1.10
6740;DHT22;3407;49.882;10.920;2024-03-29T20:57:10;8.90;4.00
6740;DHT22;3407;49.882;10.920;2024-03-29T21:02:07;8.80;8.90
6740;DHT22;3407;49.882;10.920;2024-03-29T21:07:22;8.70;11.70
6740;DHT22;3407;49.882;10.920;2024-03-29T21:12:17;8.70;15.00
6740;DHT22;3407;49.882;10.920;2024-03-29T21:17:13;8.60;9.80
6740;DHT22;3407;49.882;10.920;2024-03-29T21:22:08;8.50;12.10
6740;DHT22;3407;49.882;10.920;2024-03-29T21:27:04;8.50;12.90
6740;DHT22;3407;49.882;10.920;2024-03-29T21:32:00;8.50;15.20
6740;DHT22;3407;49.882;10.920;2024-03-29T21:36:56;8.40;16.20
6740;DHT22;3407;49.882;10.920;2024-03-29T21:41:51;8.40;16.90
6740;DHT22;3407;49.882;10.920;2024-03-29T21:46:48;8.50;22.60
6740;DHT22;3407;49.882;10.920;2024-03-29T21:51:43;8.60;31.70
6740;DHT22;3407;49.882;10.920;2024-03-29T21:56:39;8.70;35.00
6740;DHT22;3407;49.882;10.920;2024-03-29T22:01:34;8.70;34.70
6740;DHT22;3407;49.882;10.920;2024-03-29T22:06:30;8.70;36.60
6740;DHT22;3407;49.882;10.920;2024-03-29T22:11:26;8.80;39.00
6740;DHT22;3407;49.882;10.920;2024-03-29T22:16:21;8.80;39.50
6740;DHT22;3407;49.882;10.920;2024-03-29T22:21:17;8.90;40.30
6740;DHT22;3407;49.882;10.920;2024-03-29T22:26:13;8.90;39.80
6740;DHT22;3407;49.882;10.920;2024-03-29T22:31:08;8.80;41.00
6740;DHT22;3407;49.882;10.920;2024-03-29T22:36:04;8.90;40.70
6740;DHT22;3407;49.882;10.920;2024-03-29T22:41:00;8.90;41.00
6740;DHT22;3407;49.882;10.920;2024-03-29T22:45:55;8.90;40.40
6740;DHT22;3407;49.882;10.920;2024-03-29T22:50:52;8.80;40.40
6740;DHT22;3407;49.882;10.920;2024-03-29T22:55:48;8.80;43.10
6740;DHT22;3407;49.882;10.920;2024-03-29T23:00:45;8.80;43.80
6740;DHT22;3407;49.882;10.920;2024-03-29T23:05:41;8.80;44.80
6740;DHT22;3407;49.882;10.920;2024-03-29T23:10:36;8.80;44.30
6740;DHT22;3407;49.882;10.920;2024-03-29T23:15:32;8.90;46.40
6740;DHT22;3407;49.882;10.920;2024-03-29T23:20:28;8.80;47.20
6740;DHT22;3407;49.882;10.920;2024-03-29T23:25:24;8.80;43.60
6740;DHT22;3407;49.882;10.920;2024-03-29T23:30:19;8.70;33.00
6740;DHT22;3407;49.882;10.920;2024-03-29T23:35:15;8.50;28.60
6740;DHT22;3407;49.882;10.920;2024-03-29T23:40:10;8.40;23.40
6740;DHT22;3407;49.882;10.920;2024-03-29T23:45:06;8.20;18.70
6740;DHT22;3407;49.882;10.920;2024-03-29T23:50:01;8.20;20.50
6740;DHT22;3407;49.882;10.920;2024-03-29T23:55:01;8.10;21.90
